createdAt,value
2019-05-11T00:00:39.266Z,100.00
2019-05-11T00:03:12.620Z,100.00
2019-05-11T00:05:46.532Z,100.00
2019-05-11T00:08:19.559Z,100.00
2019-05-11T00:10:54.372Z,100.00
2019-05-11T00:13:29.594Z,100.00
2019-05-11T00:16:05.308Z,100.00
2019-05-11T00:18:38.343Z,100.00
2019-05-11T00:21:12.301Z,100.00
2019-05-11T00:23:46.656Z,100.00
2019-05-11T00:26:19.705Z,100.00
2019-05-11T00:28:53.150Z,100.00
2019-05-11T00:31:25.866Z,100.00
2019-05-11T00:33:58.722Z,100.00
2019-05-11T00:36:32.694Z,100.00
2019-05-11T00:39:10.705Z,100.00
2019-05-11T00:41:46.460Z,100.00
2019-05-11T00:44:19.826Z,100.00
2019-05-11T00:46:52.903Z,100.00
2019-05-11T00:49:26.065Z,100.00
2019-05-11T00:51:59.086Z,100.00
2019-05-11T00:54:33.007Z,100.00
2019-05-11T00:57:05.726Z,100.00
2019-05-11T00:59:43.326Z,100.00
2019-05-11T01:02:16.216Z,100.00
2019-05-11T01:04:52.457Z,100.00
2019-05-11T01:07:25.074Z,100.00
2019-05-11T01:10:00.477Z,100.00
2019-05-11T01:12:37.849Z,100.00
2019-05-11T01:15:12.476Z,100.00
2019-05-11T01:17:47.197Z,100.00
2019-05-11T01:20:22.994Z,100.00
2019-05-11T01:22:56.479Z,100.00
2019-05-11T01:25:31.312Z,100.00
2019-05-11T01:28:07.002Z,100.00
2019-05-11T01:30:43.082Z,100.00
2019-05-11T01:33:16.759Z,100.00
2019-05-11T01:35:53.102Z,100.00
2019-05-11T01:38:25.922Z,100.00
2019-05-11T01:41:03.023Z,100.00
2019-05-11T01:43:35.947Z,100.00
2019-05-11T01:46:10.277Z,100.00
2019-05-11T01:48:45.001Z,100.00
2019-05-11T01:51:17.783Z,100.00
2019-05-11T01:53:51.504Z,100.00
2019-05-11T01:56:26.878Z,100.00
2019-05-11T01:59:01.341Z,100.00
2019-05-11T02:01:35.458Z,100.00
2019-05-11T02:04:11.588Z,100.00
2019-05-11T02:06:48.955Z,100.00
2019-05-11T02:09:27.157Z,100.00
2019-05-11T02:11:59.963Z,100.00
2019-05-11T02:14:33.434Z,100.00
2019-05-11T02:17:07.781Z,100.00
2019-05-11T02:19:41.581Z,100.00
2019-05-11T02:22:15.423Z,100.00
2019-05-11T02:24:48.120Z,100.00
2019-05-11T02:27:20.829Z,100.00
2019-05-11T02:29:53.688Z,100.00
2019-05-11T02:32:26.421Z,100.00
2019-05-11T02:34:58.984Z,100.00
2019-05-11T02:37:31.590Z,100.00
2019-05-11T02:40:05.610Z,100.00
2019-05-11T02:42:39.864Z,100.00
2019-05-11T02:45:38.114Z,100.00
2019-05-11T02:48:11.557Z,100.00
2019-05-11T02:50:45.048Z,100.00
2019-05-11T02:53:19.317Z,100.00
2019-05-11T02:55:52.720Z,100.00
2019-05-11T02:58:25.400Z,100.00
2019-05-11T03:00:57.933Z,100.00
2019-05-11T03:03:30.551Z,100.00
2019-05-11T03:06:03.128Z,100.00
2019-05-11T03:08:35.682Z,100.00
2019-05-11T03:11:08.310Z,100.00
2019-05-11T03:13:41.830Z,100.00
2019-05-11T03:16:14.424Z,100.00
2019-05-11T03:18:47.033Z,100.00
2019-05-11T03:21:19.975Z,100.00
2019-05-11T03:23:52.588Z,100.00
2019-05-11T03:26:25.165Z,100.00
2019-05-11T03:28:57.931Z,100.00
2019-05-11T03:31:30.527Z,100.00
2019-05-11T03:34:03.106Z,100.00
2019-05-11T03:36:35.846Z,100.00
2019-05-11T03:39:08.421Z,100.00
2019-05-11T03:41:41.992Z,100.00
2019-05-11T03:44:14.694Z,100.00
2019-05-11T03:46:47.191Z,100.00
2019-05-11T03:49:19.767Z,100.00
2019-05-11T03:51:52.345Z,100.00
2019-05-11T03:54:24.971Z,100.00
2019-05-11T03:56:57.500Z,100.00
2019-05-11T03:59:30.151Z,100.00
2019-05-11T04:02:06.151Z,100.00
2019-05-11T04:04:38.790Z,100.00
2019-05-11T04:07:11.512Z,100.00
2019-05-11T04:09:44.948Z,100.00
2019-05-11T04:12:33.466Z,100.00
2019-05-11T04:15:07.586Z,100.00
2019-05-11T04:17:40.267Z,100.00
2019-05-11T04:20:12.991Z,100.00
2019-05-11T04:22:45.570Z,100.00
2019-05-11T04:25:18.286Z,100.00
2019-05-11T04:27:52.961Z,100.00
2019-05-11T04:30:25.731Z,100.00
2019-05-11T04:32:59.132Z,100.00
2019-05-11T04:35:35.085Z,100.00
2019-05-11T04:38:07.724Z,100.00
2019-05-11T04:40:40.360Z,100.00
2019-05-11T04:43:13.281Z,100.00
2019-05-11T04:45:46.419Z,100.00
2019-05-11T04:48:19.822Z,100.00
2019-05-11T04:50:53.262Z,100.00
2019-05-11T04:53:25.967Z,100.00
2019-05-11T04:55:58.688Z,100.00
2019-05-11T04:58:31.179Z,100.00
2019-05-11T05:01:03.854Z,100.00
2019-05-11T05:03:40.751Z,100.00
2019-05-11T05:06:22.767Z,100.00
2019-05-11T05:09:03.026Z,100.00
2019-05-11T05:11:38.308Z,100.00
2019-05-11T05:14:11.090Z,100.00
2019-05-11T05:16:43.867Z,100.00
2019-05-11T05:19:17.269Z,100.00
2019-05-11T05:21:49.844Z,100.00
2019-05-11T05:24:23.959Z,100.00
2019-05-11T05:26:56.658Z,100.00
2019-05-11T05:29:29.908Z,100.00
2019-05-11T05:32:02.645Z,100.00
2019-05-11T05:34:35.210Z,100.00
2019-05-11T05:37:08.889Z,100.00
2019-05-11T05:39:41.375Z,100.00
2019-05-11T05:42:14.181Z,100.00
2019-05-11T05:44:52.300Z,100.00
2019-05-11T05:47:24.935Z,100.00
2019-05-11T05:49:57.975Z,100.00
2019-05-11T05:52:30.595Z,100.00
2019-05-11T05:55:03.334Z,100.00
2019-05-11T05:57:37.013Z,100.00
2019-05-11T06:00:13.420Z,100.00
2019-05-11T06:02:47.236Z,100.00
2019-05-11T06:05:20.045Z,100.00
2019-05-11T06:07:53.235Z,100.00
2019-05-11T06:10:28.741Z,100.00
2019-05-11T06:13:02.215Z,100.00
2019-05-11T06:15:37.676Z,100.00
2019-05-11T06:18:10.384Z,100.00
2019-05-11T06:20:44.132Z,100.00
2019-05-11T06:23:16.694Z,100.00
2019-05-11T06:25:49.285Z,100.00
2019-05-11T06:28:21.845Z,100.00
2019-05-11T06:30:55.658Z,100.00
2019-05-11T06:33:28.420Z,100.00
2019-05-11T06:36:01.634Z,100.00
2019-05-11T06:38:34.186Z,100.00
2019-05-11T06:41:08.000Z,100.00
2019-05-11T06:43:40.769Z,100.00
2019-05-11T06:46:13.430Z,100.00
2019-05-11T06:48:46.151Z,100.00
2019-05-11T06:51:20.514Z,100.00
2019-05-11T06:53:53.167Z,100.00
2019-05-11T06:56:25.815Z,100.00
2019-05-11T06:58:59.134Z,100.00
2019-05-11T07:01:32.073Z,100.00
2019-05-11T07:04:04.721Z,100.00
2019-05-11T07:06:38.467Z,100.00
2019-05-11T07:09:13.129Z,100.00
2019-05-11T07:11:46.631Z,100.00
2019-05-11T07:14:21.441Z,100.00
2019-05-11T07:16:55.166Z,100.00
2019-05-11T07:19:29.988Z,100.00
2019-05-11T07:22:03.407Z,100.00
2019-05-11T07:24:36.042Z,100.00
2019-05-11T07:27:08.491Z,100.00
2019-05-11T07:29:42.667Z,100.00
2019-05-11T07:32:23.059Z,100.00
2019-05-11T07:34:59.421Z,100.00
2019-05-11T07:37:32.140Z,100.00
2019-05-11T07:40:05.180Z,100.00
2019-05-11T07:42:38.639Z,100.00
2019-05-11T07:45:14.931Z,100.00
2019-05-11T07:47:55.601Z,100.00
2019-05-11T07:50:32.079Z,100.00
2019-05-11T07:53:10.243Z,100.00
2019-05-11T07:55:45.310Z,100.00
2019-05-11T07:58:25.657Z,100.00
2019-05-11T08:00:58.363Z,100.00
2019-05-11T08:03:31.083Z,99.92
2019-05-11T08:06:08.910Z,99.41
2019-05-11T08:08:56.079Z,99.15
2019-05-11T08:11:32.399Z,98.84
2019-05-11T08:14:07.849Z,98.81
2019-05-11T08:16:42.168Z,98.61
2019-05-11T08:19:18.535Z,98.47
2019-05-11T08:21:58.273Z,98.29
2019-05-11T08:24:32.947Z,98.27
2019-05-11T08:27:08.226Z,97.72
2019-05-11T08:29:41.846Z,97.14
2019-05-11T08:32:15.375Z,97.06
2019-05-11T08:34:49.959Z,96.47
2019-05-11T08:37:22.587Z,96.20
2019-05-11T08:39:58.536Z,96.50
2019-05-11T08:42:34.822Z,96.37
2019-05-11T08:45:18.823Z,95.79
2019-05-11T08:47:57.916Z,95.89
2019-05-11T08:50:31.742Z,96.27
2019-05-11T08:53:04.372Z,96.17
2019-05-11T08:55:39.979Z,95.29
2019-05-11T08:58:12.781Z,94.60
2019-05-11T09:00:47.670Z,93.74
2019-05-11T09:03:22.575Z,92.61
2019-05-11T09:05:57.889Z,93.14
2019-05-11T09:08:38.850Z,93.00
2019-05-11T09:11:13.322Z,92.42
2019-05-11T09:13:49.104Z,92.05
2019-05-11T09:16:22.991Z,91.76
2019-05-11T09:18:58.104Z,92.50
2019-05-11T09:21:33.805Z,92.02
2019-05-11T09:24:08.871Z,92.12
2019-05-11T09:26:47.987Z,92.20
2019-05-11T09:29:20.730Z,92.15
2019-05-11T09:31:55.036Z,91.65
2019-05-11T09:34:28.859Z,91.41
2019-05-11T09:37:01.699Z,91.27
2019-05-11T09:39:34.268Z,91.32
2019-05-11T09:42:09.851Z,91.17
2019-05-11T09:44:43.440Z,90.33
2019-05-11T09:47:39.451Z,90.06
2019-05-11T09:50:28.407Z,89.28
2019-05-11T09:53:02.706Z,89.23
2019-05-11T09:55:40.632Z,86.37
2019-05-11T09:58:19.963Z,86.59
2019-05-11T10:00:58.606Z,87.38
2019-05-11T10:03:39.101Z,86.49
2019-05-11T10:06:20.256Z,83.73
2019-05-11T10:08:58.020Z,81.60
2019-05-11T10:11:31.357Z,78.86
2019-05-11T10:14:04.213Z,77.98
2019-05-11T10:16:38.615Z,75.20
2019-05-11T10:19:13.119Z,72.10
2019-05-11T10:21:48.561Z,71.00
2019-05-11T10:24:23.864Z,70.23
2019-05-11T10:26:57.830Z,68.66
2019-05-11T10:29:33.969Z,68.20
2019-05-11T10:32:09.703Z,68.28
2019-05-11T10:34:44.669Z,66.14
2019-05-11T10:37:18.821Z,66.26
2019-05-11T10:39:52.107Z,65.98
2019-05-11T10:42:38.781Z,65.29
2019-05-11T10:45:18.206Z,63.61
2019-05-11T10:47:57.258Z,61.61
2019-05-11T10:50:33.221Z,61.64
2019-05-11T10:53:10.445Z,59.95
2019-05-11T10:55:44.054Z,60.18
2019-05-11T10:58:18.456Z,59.69
2019-05-11T11:00:51.527Z,60.54
2019-05-11T11:03:25.194Z,61.70
2019-05-11T11:05:58.177Z,61.53
2019-05-11T11:08:33.285Z,58.95
2019-05-11T11:11:08.144Z,58.70
2019-05-11T11:13:41.674Z,57.27
2019-05-11T11:16:35.042Z,57.40
2019-05-11T11:19:09.473Z,57.10
2019-05-11T11:21:42.184Z,58.97
2019-05-11T11:24:17.978Z,60.49
2019-05-11T11:26:50.845Z,61.40
2019-05-11T11:29:24.272Z,60.82
2019-05-11T11:31:58.730Z,59.25
2019-05-11T11:34:31.626Z,57.11
2019-05-11T11:37:04.639Z,57.74
2019-05-11T11:39:38.854Z,59.12
2019-05-11T11:42:17.900Z,57.80
2019-05-11T11:44:51.597Z,59.57
2019-05-11T11:47:24.661Z,58.75
2019-05-11T11:50:00.525Z,58.69
2019-05-11T11:52:34.953Z,59.18
2019-05-11T11:55:08.506Z,57.82
2019-05-11T11:57:41.962Z,56.59
2019-05-11T12:00:20.296Z,55.55
2019-05-11T12:02:53.035Z,56.77
2019-05-11T12:05:28.306Z,57.10
2019-05-11T12:08:01.852Z,57.16
2019-05-11T12:10:37.934Z,58.55
2019-05-11T12:13:12.315Z,58.96
2019-05-11T12:15:45.050Z,57.47
2019-05-11T12:18:19.787Z,57.67
2019-05-11T12:20:58.567Z,57.85
2019-05-11T12:23:34.640Z,58.28
2019-05-11T12:26:09.378Z,58.02
2019-05-11T12:28:45.162Z,59.01
2019-05-11T12:31:21.503Z,59.51
2019-05-11T12:34:00.659Z,59.53
2019-05-11T12:36:35.099Z,60.08
2019-05-11T12:39:09.973Z,60.54
2019-05-11T12:41:43.607Z,60.62
2019-05-11T12:44:18.584Z,60.40
2019-05-11T12:46:53.293Z,60.89
2019-05-11T12:49:26.114Z,59.77
2019-05-11T12:52:00.133Z,59.72
2019-05-11T12:54:34.116Z,60.87
2019-05-11T12:57:07.957Z,62.29
2019-05-11T12:59:42.298Z,61.77
2019-05-11T13:02:18.281Z,62.57
2019-05-11T13:04:53.071Z,63.55
2019-05-11T13:07:28.281Z,63.52
2019-05-11T13:10:01.201Z,64.43
2019-05-11T13:12:34.339Z,63.95
2019-05-11T13:15:09.825Z,64.22
2019-05-11T13:17:48.832Z,63.97
2019-05-11T13:20:24.857Z,64.23
2019-05-11T13:22:58.736Z,64.41
2019-05-11T13:25:32.222Z,64.78
2019-05-11T13:28:08.543Z,64.26
2019-05-11T13:30:41.416Z,64.71
2019-05-11T13:33:14.034Z,62.86
2019-05-11T13:35:48.260Z,63.04
2019-05-11T13:38:21.065Z,63.22
2019-05-11T13:40:54.789Z,63.07
2019-05-11T13:43:28.473Z,61.91
2019-05-11T13:46:01.704Z,62.19
2019-05-11T13:48:34.410Z,60.15
2019-05-11T13:51:08.767Z,60.17
2019-05-11T13:53:42.475Z,59.88
2019-05-11T13:56:17.658Z,59.61
2019-05-11T13:58:51.690Z,59.60
2019-05-11T14:01:27.875Z,58.60
2019-05-11T14:04:04.631Z,58.18
2019-05-11T14:06:38.386Z,55.01
2019-05-11T14:09:11.146Z,54.38
2019-05-11T14:11:47.871Z,53.98
2019-05-11T14:14:21.411Z,53.37
2019-05-11T14:16:55.371Z,53.72
2019-05-11T14:19:29.229Z,51.72
2019-05-11T14:22:04.795Z,49.45
2019-05-11T14:24:37.789Z,49.47
2019-05-11T14:27:13.480Z,50.14
2019-05-11T14:29:52.013Z,48.31
2019-05-11T14:32:28.468Z,46.18
2019-05-11T14:35:01.307Z,46.66
2019-05-11T14:37:37.951Z,45.27
2019-05-11T14:40:11.614Z,45.40
2019-05-11T14:42:49.100Z,46.40
2019-05-11T14:45:22.569Z,45.23
2019-05-11T14:47:58.101Z,45.17
2019-05-11T14:50:34.354Z,43.64
2019-05-11T14:53:14.679Z,44.94
2019-05-11T14:55:48.804Z,44.66
2019-05-11T14:58:27.620Z,44.85
2019-05-11T15:01:01.841Z,45.28
2019-05-11T15:03:37.859Z,47.41
2019-05-11T15:06:14.627Z,46.91
2019-05-11T15:08:49.469Z,48.53
2019-05-11T15:11:23.749Z,49.63
2019-05-11T15:13:57.946Z,49.85
2019-05-11T15:16:30.962Z,50.42
2019-05-11T15:19:03.671Z,50.93
2019-05-11T15:21:38.742Z,52.18
2019-05-11T15:24:12.638Z,52.23
2019-05-11T15:26:48.768Z,51.86
2019-05-11T15:29:22.643Z,50.72
2019-05-11T15:31:57.865Z,49.42
2019-05-11T15:34:32.322Z,48.60
2019-05-11T15:37:13.864Z,49.23
2019-05-11T15:39:49.636Z,48.96
2019-05-11T15:42:24.922Z,48.84
2019-05-11T15:45:04.031Z,49.85
2019-05-11T15:48:08.248Z,50.96
2019-05-11T15:50:49.291Z,51.77
2019-05-11T15:53:22.238Z,51.81
2019-05-11T15:55:59.639Z,50.66
2019-05-11T15:58:41.452Z,49.21
2019-05-11T16:01:14.739Z,50.09
2019-05-11T16:03:49.982Z,50.10
2019-05-11T16:06:28.433Z,51.30
2019-05-11T16:09:08.017Z,51.92
2019-05-11T16:11:42.622Z,53.17
2019-05-11T16:14:16.246Z,53.25
2019-05-11T16:16:53.772Z,54.00
2019-05-11T16:19:30.509Z,53.83
2019-05-11T16:22:04.524Z,54.78
2019-05-11T16:24:39.808Z,54.52
2019-05-11T16:27:12.855Z,55.23
2019-05-11T16:29:48.221Z,55.79
2019-05-11T16:32:24.353Z,55.95
2019-05-11T16:34:57.639Z,56.26
2019-05-11T16:37:34.342Z,56.60
2019-05-11T16:40:08.885Z,55.12
2019-05-11T16:42:43.516Z,53.53
2019-05-11T16:45:31.563Z,52.21
2019-05-11T16:48:05.271Z,50.40
2019-05-11T16:50:39.107Z,50.00
2019-05-11T16:53:11.828Z,50.94
2019-05-11T16:55:48.352Z,51.92
2019-05-11T16:58:23.088Z,52.91
2019-05-11T17:00:58.183Z,53.33
2019-05-11T17:03:31.210Z,54.34
2019-05-11T17:06:04.210Z,54.49
2019-05-11T17:08:38.512Z,55.15
2019-05-11T17:11:12.810Z,55.19
2019-05-11T17:13:48.295Z,55.13
2019-05-11T17:16:25.436Z,54.07
2019-05-11T17:19:00.162Z,53.35
2019-05-11T17:21:33.885Z,50.32
2019-05-11T17:24:06.690Z,49.39
2019-05-11T17:26:42.440Z,49.17
2019-05-11T17:29:19.702Z,48.02
2019-05-11T17:31:57.814Z,46.96
2019-05-11T17:34:40.174Z,46.91
2019-05-11T17:37:14.303Z,46.87
2019-05-11T17:39:48.040Z,47.09
2019-05-11T17:42:22.872Z,46.99
2019-05-11T17:45:00.745Z,47.09
2019-05-11T17:47:35.380Z,47.10
2019-05-11T17:50:09.739Z,45.74
2019-05-11T17:52:47.754Z,46.21
2019-05-11T17:55:23.046Z,46.28
2019-05-11T17:57:58.183Z,46.15
2019-05-11T18:00:31.649Z,44.52
2019-05-11T18:03:10.197Z,42.96
2019-05-11T18:05:48.402Z,42.53
2019-05-11T18:08:30.954Z,41.10
2019-05-11T18:11:08.180Z,42.27
2019-05-11T18:13:42.353Z,42.57
2019-05-11T18:16:15.257Z,42.76
2019-05-11T18:18:48.652Z,43.71
2019-05-11T18:21:22.710Z,44.10
2019-05-11T18:23:56.267Z,44.55
2019-05-11T18:26:29.919Z,45.38
2019-05-11T18:29:03.188Z,45.99
2019-05-11T18:31:38.445Z,46.72
2019-05-11T18:34:14.548Z,47.78
2019-05-11T18:36:48.516Z,48.37
2019-05-11T18:39:23.189Z,48.26
2019-05-11T18:41:58.719Z,48.48
2019-05-11T18:44:32.600Z,48.87
2019-05-11T18:47:08.793Z,48.98
2019-05-11T18:49:41.718Z,49.01
2019-05-11T18:52:15.212Z,49.49
2019-05-11T18:54:48.937Z,49.61
2019-05-11T18:57:22.164Z,49.80
2019-05-11T18:59:54.825Z,50.33
2019-05-11T19:02:28.330Z,50.83
2019-05-11T19:05:01.217Z,51.08
2019-05-11T19:07:33.986Z,51.19
2019-05-11T19:10:11.937Z,51.64
2019-05-11T19:12:48.825Z,51.23
2019-05-11T19:15:21.834Z,51.63
2019-05-11T19:17:57.910Z,51.75
2019-05-11T19:20:44.492Z,51.63
2019-05-11T19:23:19.913Z,52.00
2019-05-11T19:25:54.900Z,52.79
2019-05-11T19:28:28.239Z,52.78
2019-05-11T19:31:01.790Z,52.77
2019-05-11T19:33:38.218Z,53.41
2019-05-11T19:36:11.184Z,53.72
2019-05-11T19:38:44.187Z,54.14
2019-05-11T19:41:18.552Z,54.12
2019-05-11T19:43:53.464Z,54.56
2019-05-11T19:46:28.050Z,55.15
2019-05-11T19:49:01.676Z,55.63
2019-05-11T19:51:43.255Z,56.07
2019-05-11T19:54:18.410Z,56.25
2019-05-11T19:56:55.074Z,56.51
2019-05-11T19:59:29.437Z,56.99
2019-05-11T20:02:04.936Z,57.17
2019-05-11T20:04:38.737Z,57.70
2019-05-11T20:07:18.323Z,58.20
2019-05-11T20:09:52.305Z,58.12
2019-05-11T20:12:28.388Z,58.21
2019-05-11T20:15:04.923Z,58.42
2019-05-11T20:17:42.460Z,58.90
2019-05-11T20:20:18.066Z,59.34
2019-05-11T20:22:52.735Z,59.15
2019-05-11T20:25:28.757Z,59.53
2019-05-11T20:28:05.857Z,60.05
2019-05-11T20:30:53.331Z,60.58
2019-05-11T20:33:27.928Z,60.92
2019-05-11T20:36:02.274Z,61.13
2019-05-11T20:38:38.415Z,61.34
2019-05-11T20:41:12.779Z,61.35
2019-05-11T20:43:49.011Z,62.05
2019-05-11T20:46:22.674Z,62.14
2019-05-11T20:48:57.939Z,62.87
2019-05-11T20:51:36.595Z,63.12
2019-05-11T20:54:17.538Z,63.30
2019-05-11T20:56:53.547Z,63.73
2019-05-11T20:59:28.738Z,64.11
2019-05-11T21:02:02.277Z,64.05
2019-05-11T21:04:35.126Z,64.60
2019-05-11T21:07:09.170Z,64.76
2019-05-11T21:09:44.457Z,64.89
2019-05-11T21:12:19.362Z,65.12
2019-05-11T21:14:57.894Z,65.36
2019-05-11T21:17:33.052Z,65.64
2019-05-11T21:20:11.115Z,65.66
2019-05-11T21:22:45.777Z,65.18
2019-05-11T21:25:21.712Z,65.33
2019-05-11T21:27:57.901Z,65.22
2019-05-11T21:30:32.058Z,65.46
2019-05-11T21:33:05.438Z,65.46
2019-05-11T21:35:39.689Z,65.56
2019-05-11T21:38:14.070Z,65.43
2019-05-11T21:40:48.558Z,65.63
2019-05-11T21:43:22.324Z,65.58
2019-05-11T21:45:55.001Z,65.68
2019-05-11T21:48:28.991Z,65.83
2019-05-11T21:51:05.774Z,65.79
2019-05-11T21:53:39.430Z,65.77
2019-05-11T21:56:12.158Z,65.92
2019-05-11T21:58:44.726Z,65.93
2019-05-11T22:01:20.147Z,66.13
2019-05-11T22:03:53.347Z,66.50
2019-05-11T22:06:30.167Z,66.86
2019-05-11T22:09:08.145Z,66.81
2019-05-11T22:11:41.784Z,66.97
2019-05-11T22:14:15.269Z,67.21
2019-05-11T22:16:51.638Z,67.47
2019-05-11T22:19:25.365Z,68.05
2019-05-11T22:21:59.977Z,68.68
2019-05-11T22:24:35.867Z,69.29
2019-05-11T22:27:09.057Z,69.29
2019-05-11T22:29:41.876Z,69.31
2019-05-11T22:32:21.542Z,69.48
2019-05-11T22:34:54.768Z,69.52
2019-05-11T22:37:29.562Z,69.26
2019-05-11T22:40:02.255Z,69.21
2019-05-11T22:42:35.026Z,69.23
2019-05-11T22:45:08.995Z,69.70
2019-05-11T22:47:42.826Z,70.02
2019-05-11T22:50:18.351Z,70.81
2019-05-11T22:52:51.837Z,71.03
2019-05-11T22:55:27.807Z,71.40
2019-05-11T22:58:01.291Z,71.82
2019-05-11T23:00:42.759Z,72.33
2019-05-11T23:03:15.499Z,72.91
2019-05-11T23:05:48.854Z,72.81
2019-05-11T23:08:22.450Z,73.16
2019-05-11T23:10:56.322Z,73.45
2019-05-11T23:13:29.008Z,73.63
2019-05-11T23:16:01.703Z,73.67
2019-05-11T23:18:34.404Z,74.15
2019-05-11T23:21:08.740Z,74.27
2019-05-11T23:23:41.401Z,74.56
2019-05-11T23:26:14.178Z,74.76
2019-05-11T23:28:48.729Z,74.74
2019-05-11T23:31:23.268Z,74.95
2019-05-11T23:33:57.824Z,75.33
2019-05-11T23:36:32.580Z,75.30
2019-05-11T23:39:09.134Z,75.32
2019-05-11T23:41:42.402Z,75.50
2019-05-11T23:44:18.025Z,75.90
2019-05-11T23:46:55.050Z,75.74
2019-05-11T23:49:27.676Z,75.95
2019-05-11T23:52:01.395Z,76.45
2019-05-11T23:54:35.271Z,76.35
2019-05-11T23:57:10.141Z,76.55
2019-05-11T23:59:42.899Z,77.10
